createdAt,value
2019-05-29T00:03:53.449Z,10.87
2019-05-29T00:07:54.335Z,9.60
2019-05-29T00:11:55.179Z,9.10
2019-05-29T00:15:56.149Z,10.13
2019-05-29T00:19:57.035Z,10.00
2019-05-29T00:23:57.940Z,11.03
2019-05-29T00:27:58.795Z,12.13
2019-05-29T00:31:59.653Z,10.17
2019-05-29T00:36:00.534Z,9.40
2019-05-29T00:40:03.605Z,10.43
2019-05-29T00:44:04.485Z,10.57
2019-05-29T00:48:05.363Z,9.87
2019-05-29T00:52:06.363Z,10.67
2019-05-29T00:56:08.426Z,10.87
2019-05-29T01:00:11.207Z,10.83
2019-05-29T01:04:12.328Z,10.83
2019-05-29T01:08:14.400Z,10.87
2019-05-29T01:12:15.534Z,11.17
2019-05-29T01:16:17.446Z,12.10
2019-05-29T01:20:19.921Z,11.53
2019-05-29T01:24:21.169Z,10.37
2019-05-29T01:28:23.129Z,11.33
2019-05-29T01:32:24.143Z,11.97
2019-05-29T01:36:25.024Z,13.33
2019-05-29T01:40:29.103Z,10.80
2019-05-29T01:44:28.647Z,13.63
2019-05-29T01:48:29.513Z,10.57
2019-05-29T01:52:30.402Z,11.33
2019-05-29T01:56:31.286Z,11.30
2019-05-29T02:00:32.281Z,11.30
2019-05-29T02:04:33.220Z,10.47
2019-05-29T02:08:34.198Z,11.47
2019-05-29T02:12:35.073Z,11.13
2019-05-29T02:16:35.945Z,12.57
2019-05-29T02:20:36.818Z,10.50
2019-05-29T02:24:37.685Z,11.77
2019-05-29T02:28:38.667Z,14.37
2019-05-29T02:32:39.557Z,14.57
2019-05-29T02:36:40.472Z,14.60
2019-05-29T02:40:41.443Z,14.90
2019-05-29T02:44:42.639Z,14.33
2019-05-29T02:48:43.791Z,15.73
2019-05-29T02:52:44.710Z,14.80
2019-05-29T02:56:45.734Z,17.97
2019-05-29T03:00:53.882Z,18.07
2019-05-29T03:04:54.920Z,15.20
2019-05-29T03:08:55.904Z,11.77
2019-05-29T03:12:56.979Z,13.40
2019-05-29T03:16:57.940Z,13.07
2019-05-29T03:20:58.927Z,14.20
2019-05-29T03:24:59.800Z,13.30
2019-05-29T03:29:00.671Z,11.83
2019-05-29T03:33:01.578Z,12.63
2019-05-29T03:37:02.632Z,13.57
2019-05-29T03:41:03.599Z,14.03
2019-05-29T03:45:04.691Z,17.10
2019-05-29T03:49:06.689Z,9.87
2019-05-29T03:53:07.524Z,9.53
2019-05-29T03:57:08.503Z,14.17
2019-05-29T04:01:09.395Z,11.30
2019-05-29T04:05:10.473Z,13.97
2019-05-29T04:09:11.463Z,11.73
2019-05-29T04:13:12.426Z,14.17
2019-05-29T04:17:13.718Z,11.57
2019-05-29T04:21:15.601Z,9.97
2019-05-29T04:25:16.464Z,8.10
2019-05-29T04:29:18.133Z,8.57
2019-05-29T04:33:19.602Z,8.33
2019-05-29T04:37:20.467Z,8.03
2019-05-29T04:41:21.328Z,7.20
2019-05-29T04:45:22.222Z,10.97
2019-05-29T04:49:23.093Z,8.33
2019-05-29T04:53:23.967Z,10.40
2019-05-29T04:57:24.888Z,6.97
2019-05-29T05:01:25.773Z,6.60
2019-05-29T05:05:26.673Z,7.97
2019-05-29T05:09:27.522Z,6.33
2019-05-29T05:13:29.465Z,8.63
2019-05-29T05:17:31.737Z,10.80
2019-05-29T05:21:33.941Z,5.33
2019-05-29T05:25:36.238Z,9.50
2019-05-29T05:29:38.358Z,9.40
2019-05-29T05:33:40.898Z,7.10
2019-05-29T05:37:42.092Z,14.77
2019-05-29T05:41:43.051Z,5.60
2019-05-29T05:45:44.117Z,5.60
2019-05-29T05:49:45.009Z,5.43
2019-05-29T05:53:45.878Z,4.27
2019-05-29T05:57:46.778Z,6.53
2019-05-29T06:01:47.609Z,4.37
2019-05-29T06:05:48.504Z,5.70
2019-05-29T06:09:49.378Z,5.13
2019-05-29T06:13:50.258Z,5.70
2019-05-29T06:18:10.232Z,3.60
2019-05-29T06:21:53.972Z,4.23
2019-05-29T06:25:54.839Z,5.93
2019-05-29T06:29:55.946Z,3.67
2019-05-29T06:33:56.819Z,5.90
2019-05-29T06:37:57.673Z,3.37
2019-05-29T06:41:58.667Z,4.50
2019-05-29T06:45:59.650Z,5.10
2019-05-29T06:50:00.646Z,8.00
2019-05-29T06:54:01.633Z,4.53
2019-05-29T06:58:03.065Z,5.90
2019-05-29T07:02:04.467Z,7.03
2019-05-29T07:06:05.362Z,5.47
2019-05-29T07:10:06.526Z,3.53
2019-05-29T07:14:07.524Z,8.43
2019-05-29T07:18:08.406Z,4.30
2019-05-29T07:22:09.269Z,10.20
2019-05-29T07:26:10.128Z,7.37
2019-05-29T07:30:11.515Z,4.70
2019-05-29T07:34:12.370Z,3.40
2019-05-29T07:38:13.412Z,6.00
2019-05-29T07:42:14.296Z,8.53
2019-05-29T07:46:15.171Z,4.83
2019-05-29T07:50:16.415Z,5.00
2019-05-29T07:54:17.262Z,4.80
2019-05-29T07:58:18.238Z,5.77
2019-05-29T08:02:19.098Z,6.50
2019-05-29T08:06:20.189Z,5.37
2019-05-29T08:10:23.058Z,5.90
2019-05-29T08:14:24.122Z,3.20
2019-05-29T08:18:25.007Z,8.27
2019-05-29T08:22:34.277Z,5.73
2019-05-29T08:26:29.057Z,5.07
2019-05-29T08:30:29.958Z,11.80
2019-05-29T08:34:30.967Z,6.13
2019-05-29T08:38:31.859Z,5.87
2019-05-29T08:42:32.849Z,5.10
2019-05-29T08:46:33.741Z,7.23
2019-05-29T08:50:34.618Z,6.53
2019-05-29T08:54:35.615Z,4.27
2019-05-29T08:58:37.430Z,4.13
2019-05-29T09:02:38.946Z,8.13
2019-05-29T09:06:39.801Z,4.37
2019-05-29T09:10:40.698Z,5.47
2019-05-29T09:14:41.583Z,4.87
2019-05-29T09:18:42.460Z,7.23
2019-05-29T09:22:43.452Z,4.43
2019-05-29T09:26:46.411Z,6.30
2019-05-29T09:30:47.261Z,3.63
2019-05-29T09:34:48.136Z,5.80
2019-05-29T09:38:49.044Z,4.13
2019-05-29T09:42:49.985Z,3.80
2019-05-29T09:46:50.982Z,3.20
2019-05-29T09:50:51.980Z,3.63
2019-05-29T09:54:53.457Z,4.27
2019-05-29T09:58:56.595Z,6.03
2019-05-29T10:02:59.411Z,3.73
2019-05-29T10:07:02.141Z,4.60
2019-05-29T10:11:08.408Z,5.37
2019-05-29T10:15:09.495Z,3.07
2019-05-29T10:19:10.380Z,3.50
2019-05-29T10:23:11.217Z,12.53
2019-05-29T10:27:12.127Z,4.50
2019-05-29T10:31:13.098Z,4.33
2019-05-29T10:35:14.176Z,2.07
2019-05-29T10:39:15.062Z,2.97
2019-05-29T10:43:30.950Z,1.20
2019-05-29T10:47:19.107Z,2.17
2019-05-29T10:51:20.114Z,1.60
2019-05-29T10:55:22.015Z,1.80
2019-05-29T10:59:22.867Z,2.17
2019-05-29T11:03:23.795Z,4.20
2019-05-29T11:07:24.692Z,2.33
2019-05-29T11:11:25.671Z,1.50
2019-05-29T11:15:26.559Z,1.93
2019-05-29T11:19:27.410Z,2.13
2019-05-29T11:23:28.297Z,4.97
2019-05-29T11:27:29.192Z,2.47
2019-05-29T11:31:30.070Z,3.07
2019-05-29T11:35:31.191Z,3.37
2019-05-29T11:39:32.216Z,3.80
2019-05-29T11:43:33.171Z,5.77
2019-05-29T11:47:34.113Z,4.70
2019-05-29T11:51:35.070Z,5.30
2019-05-29T11:55:35.985Z,9.43
2019-05-29T11:59:36.881Z,5.87
2019-05-29T12:03:58.295Z,3.37
2019-05-29T12:07:40.570Z,3.10
2019-05-29T12:11:41.488Z,4.00
2019-05-29T12:15:42.474Z,3.63
2019-05-29T12:19:43.355Z,1.80
2019-05-29T12:23:44.244Z,2.47
2019-05-29T12:27:45.150Z,1.43
2019-05-29T12:31:46.098Z,1.50
2019-05-29T12:35:50.082Z,3.10
2019-05-29T12:39:49.779Z,3.77
2019-05-29T12:43:50.669Z,2.07
2019-05-29T12:47:51.660Z,2.70
2019-05-29T12:51:53.499Z,1.37
2019-05-29T12:55:55.995Z,2.17
2019-05-29T12:59:58.011Z,1.20
2019-05-29T13:04:00.270Z,1.67
2019-05-29T13:08:03.093Z,2.57
2019-05-29T13:12:04.823Z,5.03
2019-05-29T13:16:05.896Z,3.80
2019-05-29T13:20:20.645Z,8.83
2019-05-29T13:24:11.714Z,6.40
2019-05-29T13:28:12.982Z,5.20
2019-05-29T13:32:13.993Z,2.47
2019-05-29T13:36:15.110Z,1.90
2019-05-29T13:40:16.485Z,4.67
2019-05-29T13:44:17.351Z,5.57
2019-05-29T13:48:18.323Z,2.40
2019-05-29T13:52:19.225Z,1.23
2019-05-29T13:56:24.049Z,1.77
2019-05-29T14:00:33.359Z,2.30
2019-05-29T14:04:26.342Z,3.50
2019-05-29T14:08:27.345Z,1.57
2019-05-29T14:12:28.232Z,1.77
2019-05-29T14:16:29.196Z,1.63
2019-05-29T14:20:30.170Z,1.80
2019-05-29T14:24:31.048Z,4.17
2019-05-29T14:28:32.024Z,3.67
2019-05-29T14:32:32.899Z,2.83
2019-05-29T14:36:33.773Z,4.43
2019-05-29T14:40:34.723Z,1.30
2019-05-29T14:44:35.602Z,1.10
2019-05-29T14:48:36.493Z,3.80
2019-05-29T14:52:37.403Z,4.07
2019-05-29T14:56:38.363Z,3.30
2019-05-29T15:00:39.264Z,2.63
2019-05-29T15:04:40.224Z,2.63
2019-05-29T15:08:41.159Z,2.67
2019-05-29T15:12:42.040Z,2.47
2019-05-29T15:16:42.914Z,1.30
2019-05-29T15:20:43.968Z,2.30
2019-05-29T15:25:00.875Z,2.27
2019-05-29T15:28:47.810Z,2.67
2019-05-29T15:32:48.784Z,3.87
2019-05-29T15:36:50.077Z,42.17
2019-05-29T15:40:51.055Z,1.00
2019-05-29T15:44:51.954Z,1.77
2019-05-29T15:48:52.960Z,2.77
2019-05-29T15:52:54.070Z,1.23
2019-05-29T15:56:55.063Z,1.03
2019-05-29T16:00:55.941Z,0.90
2019-05-29T16:04:56.919Z,1.07
2019-05-29T16:08:57.802Z,0.83
2019-05-29T16:12:58.703Z,1.57
2019-05-29T16:16:59.668Z,1.07
2019-05-29T16:21:00.573Z,2.47
2019-05-29T16:25:01.825Z,1.03
2019-05-29T16:29:02.987Z,0.77
2019-05-29T16:33:04.069Z,1.63
2019-05-29T16:37:04.961Z,0.73
2019-05-29T16:41:05.999Z,1.37
2019-05-29T16:45:07.952Z,3.17
2019-05-29T16:49:08.918Z,1.93
2019-05-29T16:53:09.948Z,3.30
2019-05-29T16:57:10.853Z,0.70
2019-05-29T17:01:13.195Z,2.00
2019-05-29T17:05:15.671Z,1.57
2019-05-29T17:09:18.152Z,1.33
2019-05-29T17:13:20.551Z,0.73
2019-05-29T17:17:22.581Z,5.00
2019-05-29T17:21:24.849Z,1.93
2019-05-29T17:25:28.463Z,2.10
2019-05-29T17:29:28.917Z,1.20
2019-05-29T17:33:29.807Z,1.27
2019-05-29T17:37:30.678Z,2.57
2019-05-29T17:41:31.536Z,2.23
2019-05-29T17:45:32.620Z,2.57
2019-05-29T17:49:34.730Z,1.00
2019-05-29T17:53:36.005Z,1.63
2019-05-29T17:57:36.880Z,1.13
2019-05-29T18:01:38.266Z,1.47
2019-05-29T18:05:39.133Z,1.37
2019-05-29T18:09:40.024Z,1.50
2019-05-29T18:13:41.005Z,0.97
2019-05-29T18:17:44.275Z,1.40
2019-05-29T18:21:44.774Z,2.13
2019-05-29T18:25:45.887Z,1.60
2019-05-29T18:29:46.888Z,3.83
2019-05-29T18:33:47.769Z,0.87
2019-05-29T18:37:48.741Z,1.40
2019-05-29T18:41:49.623Z,1.20
2019-05-29T18:45:50.492Z,6.07
2019-05-29T18:49:51.383Z,1.27
2019-05-29T18:53:52.403Z,1.57
2019-05-29T18:57:53.396Z,3.47
2019-05-29T19:01:54.370Z,3.53
2019-05-29T19:05:55.402Z,1.70
2019-05-29T19:09:56.371Z,1.27
2019-05-29T19:13:57.218Z,3.93
2019-05-29T19:17:58.203Z,5.07
2019-05-29T19:21:59.250Z,7.30
2019-05-29T19:26:00.212Z,3.07
2019-05-29T19:30:01.418Z,4.00
2019-05-29T19:34:02.511Z,1.77
2019-05-29T19:38:03.525Z,3.77
2019-05-29T19:42:04.597Z,2.43
2019-05-29T19:46:05.923Z,2.00
2019-05-29T19:50:11.103Z,2.43
2019-05-29T19:54:11.392Z,3.37
2019-05-29T19:58:12.540Z,5.90
2019-05-29T20:02:13.533Z,5.93
2019-05-29T20:06:14.496Z,5.07
2019-05-29T20:10:15.588Z,4.20
2019-05-29T20:14:16.466Z,2.93
2019-05-29T20:18:17.379Z,4.37
2019-05-29T20:22:18.370Z,3.90
2019-05-29T20:26:19.388Z,3.40
2019-05-29T20:30:20.469Z,3.80
2019-05-29T20:34:21.376Z,3.67
2019-05-29T20:38:22.359Z,4.10
2019-05-29T20:42:23.507Z,4.53
2019-05-29T20:46:24.350Z,5.40
2019-05-29T20:50:25.235Z,5.00
2019-05-29T20:54:26.136Z,6.57
2019-05-29T20:58:27.094Z,4.67
2019-05-29T21:02:28.097Z,9.13
2019-05-29T21:06:29.080Z,3.93
2019-05-29T21:10:30.164Z,4.10
2019-05-29T21:14:31.578Z,4.33
2019-05-29T21:18:33.726Z,6.60
2019-05-29T21:22:34.811Z,3.90
2019-05-29T21:26:36.896Z,4.30
2019-05-29T21:30:39.415Z,4.97
2019-05-29T21:34:40.501Z,4.13
2019-05-29T21:38:42.305Z,4.93
2019-05-29T21:42:43.264Z,4.17
2019-05-29T21:46:45.137Z,3.57
2019-05-29T21:50:47.375Z,3.97
2019-05-29T21:54:48.478Z,3.67
2019-05-29T21:59:02.628Z,4.27
2019-05-29T22:02:52.252Z,3.73
2019-05-29T22:06:53.604Z,4.03
2019-05-29T22:10:55.533Z,7.10
2019-05-29T22:14:56.971Z,5.40
2019-05-29T22:19:00.834Z,6.73
2019-05-29T22:23:02.689Z,4.77
2019-05-29T22:27:03.821Z,4.10
2019-05-29T22:31:04.706Z,4.20
2019-05-29T22:35:06.084Z,4.00
2019-05-29T22:39:07.163Z,4.07
2019-05-29T22:43:08.233Z,3.40
2019-05-29T22:47:09.130Z,4.20
2019-05-29T22:51:10.136Z,3.27
2019-05-29T22:55:11.499Z,3.63
2019-05-29T22:59:12.363Z,4.20
2019-05-29T23:03:13.234Z,3.20
2019-05-29T23:07:14.109Z,3.83
2019-05-29T23:11:15.118Z,4.07
2019-05-29T23:15:16.573Z,4.80
2019-05-29T23:19:17.448Z,4.53
2019-05-29T23:23:18.355Z,3.43
2019-05-29T23:27:19.215Z,4.27
2019-05-29T23:31:20.078Z,3.67
2019-05-29T23:35:20.949Z,4.40
2019-05-29T23:39:21.974Z,4.30
2019-05-29T23:43:23.052Z,4.83
2019-05-29T23:47:23.992Z,4.77
2019-05-29T23:51:24.943Z,4.53
2019-05-29T23:55:25.908Z,4.93
2019-05-29T23:59:26.904Z,6.00
